sensor_id;sensor_type;location;lat;lon;timestamp;P1;durP1;ratioP1;P2;durP2;ratioP2
18999;SDS011;9633;50.980;13.850;2022-11-06T00:01:19;39.20;;;15.03;;
18999;SDS011;9633;50.980;13.850;2022-11-06T00:02:52;43.00;;;13.93;;
18999;SDS011;9633;50.980;13.850;2022-11-06T00:04:28;77.67;;;15.73;;
18999;SDS011;9633;50.980;13.850;2022-11-06T00:06:04;86.23;;;16.07;;
18999;SDS011;9633;50.980;13.850;2022-11-06T00:07:55;76.73;;;15.97;;
18999;SDS011;9633;50.980;13.850;2022-11-06T00:09:27;102.57;;;16.70;;
18999;SDS011;9633;50.980;13.850;2022-11-06T00:11:02;94.43;;;16.83;;
18999;SDS011;9633;50.980;13.850;2022-11-06T00:12:40;75.40;;;15.30;;
18999;SDS011;9633;50.980;13.850;2022-11-06T00:14:14;181.27;;;20.40;;
18999;SDS011;9633;50.980;13.850;2022-11-06T00:15:48;37.87;;;13.17;;
18999;SDS011;9633;50.980;13.850;2022-11-06T00:17:21;139.37;;;17.07;;
18999;SDS011;9633;50.980;13.850;2022-11-06T00:18:54;72.37;;;14.10;;
18999;SDS011;9633;50.980;13.850;2022-11-06T00:20:27;112.33;;;14.93;;
18999;SDS011;9633;50.980;13.850;2022-11-06T00:22:00;46.50;;;12.37;;
18999;SDS011;9633;50.980;13.850;2022-11-06T00:23:33;51.23;;;13.30;;
18999;SDS011;9633;50.980;13.850;2022-11-06T00:25:07;55.60;;;13.00;;
18999;SDS011;9633;50.980;13.850;2022-11-06T00:26:41;74.90;;;14.67;;
18999;SDS011;9633;50.980;13.850;2022-11-06T00:28:14;36.47;;;12.23;;
18999;SDS011;9633;50.980;13.850;2022-11-06T00:29:46;41.07;;;12.43;;
18999;SDS011;9633;50.980;13.850;2022-11-06T00:31:20;46.43;;;12.87;;
18999;SDS011;9633;50.980;13.850;2022-11-06T00:32:54;24.63;;;11.60;;
18999;SDS011;9633;50.980;13.850;2022-11-06T00:34:27;21.43;;;11.63;;
18999;SDS011;9633;50.980;13.850;2022-11-06T00:36:01;30.90;;;12.20;;
18999;SDS011;9633;50.980;13.850;2022-11-06T00:37:34;51.37;;;13.17;;
18999;SDS011;9633;50.980;13.850;2022-11-06T00:39:08;36.97;;;12.10;;
18999;SDS011;9633;50.980;13.850;2022-11-06T00:40:42;56.63;;;12.43;;
18999;SDS011;9633;50.980;13.850;2022-11-06T00:42:16;34.23;;;12.10;;
18999;SDS011;9633;50.980;13.850;2022-11-06T00:43:52;42.67;;;12.37;;
18999;SDS011;9633;50.980;13.850;2022-11-06T00:45:27;59.30;;;13.97;;
18999;SDS011;9633;50.980;13.850;2022-11-06T00:47:00;62.40;;;13.20;;
18999;SDS011;9633;50.980;13.850;2022-11-06T00:48:33;78.63;;;14.63;;
18999;SDS011;9633;50.980;13.850;2022-11-06T00:50:06;44.27;;;12.23;;
18999;SDS011;9633;50.980;13.850;2022-11-06T00:51:40;53.47;;;12.77;;
18999;SDS011;9633;50.980;13.850;2022-11-06T00:53:13;45.77;;;13.37;;
18999;SDS011;9633;50.980;13.850;2022-11-06T00:54:46;45.83;;;13.30;;
18999;SDS011;9633;50.980;13.850;2022-11-06T00:56:19;40.37;;;12.23;;
18999;SDS011;9633;50.980;13.850;2022-11-06T00:57:53;26.13;;;12.10;;
18999;SDS011;9633;50.980;13.850;2022-11-06T00:59:27;22.33;;;11.40;;
18999;SDS011;9633;50.980;13.850;2022-11-06T01:01:07;34.07;;;12.33;;
18999;SDS011;9633;50.980;13.850;2022-11-06T01:02:41;71.90;;;13.93;;
18999;SDS011;9633;50.980;13.850;2022-11-06T01:04:15;43.33;;;12.63;;
18999;SDS011;9633;50.980;13.850;2022-11-06T01:05:50;111.50;;;14.87;;
18999;SDS011;9633;50.980;13.850;2022-11-06T01:07:23;80.73;;;15.40;;
18999;SDS011;9633;50.980;13.850;2022-11-06T01:08:56;229.00;;;19.00;;
18999;SDS011;9633;50.980;13.850;2022-11-06T01:10:29;83.90;;;13.27;;
18999;SDS011;9633;50.980;13.850;2022-11-06T01:12:03;78.43;;;13.30;;
18999;SDS011;9633;50.980;13.850;2022-11-06T01:13:47;72.73;;;13.67;;
18999;SDS011;9633;50.980;13.850;2022-11-06T01:15:21;64.37;;;12.90;;
18999;SDS011;9633;50.980;13.850;2022-11-06T01:16:54;58.27;;;13.60;;
18999;SDS011;9633;50.980;13.850;2022-11-06T01:18:28;87.97;;;13.83;;
18999;SDS011;9633;50.980;13.850;2022-11-06T01:20:01;192.03;;;18.83;;
18999;SDS011;9633;50.980;13.850;2022-11-06T01:21:36;218.53;;;20.33;;
18999;SDS011;9633;50.980;13.850;2022-11-06T01:23:10;88.17;;;14.40;;
18999;SDS011;9633;50.980;13.850;2022-11-06T01:24:44;149.83;;;17.30;;
18999;SDS011;9633;50.980;13.850;2022-11-06T01:26:17;81.23;;;13.53;;
18999;SDS011;9633;50.980;13.850;2022-11-06T01:28:08;60.77;;;12.53;;
18999;SDS011;9633;50.980;13.850;2022-11-06T01:29:43;95.70;;;14.00;;
18999;SDS011;9633;50.980;13.850;2022-11-06T01:31:17;58.67;;;12.23;;
18999;SDS011;9633;50.980;13.850;2022-11-06T01:32:51;59.57;;;13.40;;
18999;SDS011;9633;50.980;13.850;2022-11-06T01:34:24;54.07;;;12.57;;
18999;SDS011;9633;50.980;13.850;2022-11-06T01:35:58;69.77;;;13.77;;
18999;SDS011;9633;50.980;13.850;2022-11-06T01:37:31;59.93;;;14.17;;
18999;SDS011;9633;50.980;13.850;2022-11-06T01:39:05;72.93;;;13.73;;
18999;SDS011;9633;50.980;13.850;2022-11-06T01:40:40;67.60;;;13.50;;
18999;SDS011;9633;50.980;13.850;2022-11-06T01:42:14;33.60;;;12.47;;
18999;SDS011;9633;50.980;13.850;2022-11-06T01:43:51;54.80;;;14.33;;
18999;SDS011;9633;50.980;13.850;2022-11-06T01:45:30;52.90;;;13.40;;
18999;SDS011;9633;50.980;13.850;2022-11-06T01:47:15;30.77;;;11.67;;
18999;SDS011;9633;50.980;13.850;2022-11-06T01:48:54;56.77;;;13.30;;
18999;SDS011;9633;50.980;13.850;2022-11-06T01:50:30;37.37;;;12.27;;
18999;SDS011;9633;50.980;13.850;2022-11-06T01:52:05;49.00;;;13.07;;
18999;SDS011;9633;50.980;13.850;2022-11-06T01:53:40;70.17;;;14.00;;
18999;SDS011;9633;50.980;13.850;2022-11-06T01:55:15;32.10;;;12.47;;
18999;SDS011;9633;50.980;13.850;2022-11-06T01:56:51;56.47;;;13.37;;
18999;SDS011;9633;50.980;13.850;2022-11-06T01:58:29;57.23;;;14.10;;
18999;SDS011;9633;50.980;13.850;2022-11-06T02:00:04;42.83;;;13.00;;
18999;SDS011;9633;50.980;13.850;2022-11-06T02:01:39;82.30;;;14.73;;
18999;SDS011;9633;50.980;13.850;2022-11-06T02:03:12;79.57;;;13.60;;
18999;SDS011;9633;50.980;13.850;2022-11-06T02:04:47;44.43;;;12.70;;
18999;SDS011;9633;50.980;13.850;2022-11-06T02:06:20;100.47;;;16.03;;
18999;SDS011;9633;50.980;13.850;2022-11-06T02:07:53;59.03;;;13.57;;
18999;SDS011;9633;50.980;13.850;2022-11-06T02:09:27;57.33;;;13.70;;
18999;SDS011;9633;50.980;13.850;2022-11-06T02:11:02;91.00;;;14.60;;
18999;SDS011;9633;50.980;13.850;2022-11-06T02:12:46;51.93;;;13.33;;
18999;SDS011;9633;50.980;13.850;2022-11-06T02:14:30;74.80;;;15.40;;
18999;SDS011;9633;50.980;13.850;2022-11-06T02:16:10;66.13;;;14.27;;
18999;SDS011;9633;50.980;13.850;2022-11-06T02:17:59;48.67;;;13.33;;
18999;SDS011;9633;50.980;13.850;2022-11-06T02:19:48;82.73;;;14.50;;
18999;SDS011;9633;50.980;13.850;2022-11-06T02:23:36;101.03;;;14.00;;
18999;SDS011;9633;50.980;13.850;2022-11-06T02:25:23;51.47;;;13.23;;
18999;SDS011;9633;50.980;13.850;2022-11-06T02:27:09;72.47;;;13.67;;
18999;SDS011;9633;50.980;13.850;2022-11-06T02:28:46;124.43;;;15.73;;
18999;SDS011;9633;50.980;13.850;2022-11-06T02:30:24;66.97;;;12.63;;
18999;SDS011;9633;50.980;13.850;2022-11-06T02:31:58;102.10;;;15.67;;
18999;SDS011;9633;50.980;13.850;2022-11-06T02:33:36;52.40;;;11.93;;
18999;SDS011;9633;50.980;13.850;2022-11-06T02:35:19;39.37;;;12.87;;
18999;SDS011;9633;50.980;13.850;2022-11-06T02:36:56;51.20;;;12.97;;
18999;SDS011;9633;50.980;13.850;2022-11-06T02:38:33;45.93;;;12.73;;
18999;SDS011;9633;50.980;13.850;2022-11-06T02:40:11;95.47;;;15.77;;
18999;SDS011;9633;50.980;13.850;2022-11-06T02:41:46;45.07;;;13.90;;
18999;SDS011;9633;50.980;13.850;2022-11-06T02:43:25;57.40;;;13.60;;
18999;SDS011;9633;50.980;13.850;2022-11-06T02:45:03;62.13;;;13.70;;
18999;SDS011;9633;50.980;13.850;2022-11-06T02:46:39;75.57;;;14.30;;
18999;SDS011;9633;50.980;13.850;2022-11-06T02:48:19;47.87;;;12.47;;
18999;SDS011;9633;50.980;13.850;2022-11-06T02:49:58;38.77;;;12.40;;
18999;SDS011;9633;50.980;13.850;2022-11-06T02:51:36;22.70;;;11.83;;
18999;SDS011;9633;50.980;13.850;2022-11-06T02:53:13;20.77;;;11.83;;
18999;SDS011;9633;50.980;13.850;2022-11-06T02:54:49;32.10;;;12.47;;
18999;SDS011;9633;50.980;13.850;2022-11-06T02:56:27;53.57;;;14.00;;
18999;SDS011;9633;50.980;13.850;2022-11-06T02:58:05;16.43;;;11.13;;
18999;SDS011;9633;50.980;13.850;2022-11-06T02:59:44;16.13;;;10.83;;
18999;SDS011;9633;50.980;13.850;2022-11-06T03:01:23;15.80;;;10.63;;
18999;SDS011;9633;50.980;13.850;2022-11-06T03:03:00;15.20;;;10.37;;
18999;SDS011;9633;50.980;13.850;2022-11-06T03:04:37;17.43;;;10.90;;
18999;SDS011;9633;50.980;13.850;2022-11-06T03:06:17;14.93;;;10.47;;
18999;SDS011;9633;50.980;13.850;2022-11-06T03:08:00;12.53;;;9.50;;
18999;SDS011;9633;50.980;13.850;2022-11-06T03:09:39;15.23;;;10.10;;
18999;SDS011;9633;50.980;13.850;2022-11-06T03:11:13;17.70;;;10.67;;
18999;SDS011;9633;50.980;13.850;2022-11-06T03:12:53;25.13;;;10.60;;
18999;SDS011;9633;50.980;13.850;2022-11-06T03:14:28;19.73;;;10.70;;
18999;SDS011;9633;50.980;13.850;2022-11-06T03:16:07;27.27;;;10.87;;
18999;SDS011;9633;50.980;13.850;2022-11-06T03:17:51;20.70;;;10.67;;
18999;SDS011;9633;50.980;13.850;2022-11-06T03:19:31;19.93;;;10.40;;
18999;SDS011;9633;50.980;13.850;2022-11-06T03:21:14;15.83;;;10.03;;
18999;SDS011;9633;50.980;13.850;2022-11-06T03:22:53;31.97;;;11.60;;
18999;SDS011;9633;50.980;13.850;2022-11-06T03:24:36;40.27;;;12.83;;
18999;SDS011;9633;50.980;13.850;2022-11-06T03:26:17;20.80;;;11.10;;
18999;SDS011;9633;50.980;13.850;2022-11-06T03:27:58;17.50;;;10.77;;
18999;SDS011;9633;50.980;13.850;2022-11-06T03:29:35;19.70;;;11.93;;
18999;SDS011;9633;50.980;13.850;2022-11-06T03:31:14;18.33;;;10.80;;
18999;SDS011;9633;50.980;13.850;2022-11-06T03:32:52;16.13;;;11.40;;
18999;SDS011;9633;50.980;13.850;2022-11-06T03:34:34;19.10;;;11.03;;
18999;SDS011;9633;50.980;13.850;2022-11-06T03:36:11;24.57;;;13.03;;
18999;SDS011;9633;50.980;13.850;2022-11-06T03:37:50;19.90;;;11.97;;
18999;SDS011;9633;50.980;13.850;2022-11-06T03:39:29;18.40;;;11.53;;
18999;SDS011;9633;50.980;13.850;2022-11-06T03:41:06;17.60;;;11.90;;
18999;SDS011;9633;50.980;13.850;2022-11-06T03:42:44;16.67;;;11.30;;
18999;SDS011;9633;50.980;13.850;2022-11-06T03:44:20;15.83;;;10.83;;
18999;SDS011;9633;50.980;13.850;2022-11-06T03:45:58;17.50;;;10.30;;
18999;SDS011;9633;50.980;13.850;2022-11-06T03:47:37;22.43;;;11.77;;
18999;SDS011;9633;50.980;13.850;2022-11-06T03:49:14;17.80;;;11.77;;
18999;SDS011;9633;50.980;13.850;2022-11-06T03:50:53;20.00;;;11.57;;
18999;SDS011;9633;50.980;13.850;2022-11-06T03:52:32;27.00;;;11.70;;
18999;SDS011;9633;50.980;13.850;2022-11-06T03:54:10;30.63;;;12.03;;
18999;SDS011;9633;50.980;13.850;2022-11-06T03:55:49;32.90;;;12.63;;
18999;SDS011;9633;50.980;13.850;2022-11-06T03:57:28;38.77;;;13.33;;
18999;SDS011;9633;50.980;13.850;2022-11-06T03:59:08;29.40;;;12.80;;
18999;SDS011;9633;50.980;13.850;2022-11-06T04:00:44;54.27;;;14.20;;
18999;SDS011;9633;50.980;13.850;2022-11-06T04:02:18;32.67;;;13.27;;
18999;SDS011;9633;50.980;13.850;2022-11-06T04:03:57;25.87;;;12.63;;
18999;SDS011;9633;50.980;13.850;2022-11-06T04:05:34;27.33;;;13.27;;
18999;SDS011;9633;50.980;13.850;2022-11-06T04:07:11;60.03;;;13.80;;
18999;SDS011;9633;50.980;13.850;2022-11-06T04:08:47;43.33;;;13.63;;
18999;SDS011;9633;50.980;13.850;2022-11-06T04:10:42;36.57;;;13.00;;
18999;SDS011;9633;50.980;13.850;2022-11-06T04:12:35;40.93;;;12.60;;
18999;SDS011;9633;50.980;13.850;2022-11-06T04:14:28;28.07;;;11.57;;
18999;SDS011;9633;50.980;13.850;2022-11-06T04:16:04;19.80;;;11.27;;
18999;SDS011;9633;50.980;13.850;2022-11-06T04:17:39;19.53;;;11.93;;
18999;SDS011;9633;50.980;13.850;2022-11-06T04:19:15;25.23;;;12.47;;
18999;SDS011;9633;50.980;13.850;2022-11-06T04:20:50;24.70;;;11.80;;
18999;SDS011;9633;50.980;13.850;2022-11-06T04:22:50;32.53;;;12.90;;
18999;SDS011;9633;50.980;13.850;2022-11-06T04:24:32;61.73;;;14.43;;
18999;SDS011;9633;50.980;13.850;2022-11-06T04:26:32;43.23;;;12.67;;
18999;SDS011;9633;50.980;13.850;2022-11-06T04:28:18;77.53;;;15.80;;
18999;SDS011;9633;50.980;13.850;2022-11-06T04:30:01;47.30;;;13.70;;
18999;SDS011;9633;50.980;13.850;2022-11-06T04:31:39;21.35;;;12.88;;
18999;SDS011;9633;50.980;13.850;2022-11-06T04:33:21;17.55;;;12.50;;
18999;SDS011;9633;50.980;13.850;2022-11-06T04:35:01;21.50;;;12.93;;
18999;SDS011;9633;50.980;13.850;2022-11-06T04:36:38;17.23;;;12.47;;
18999;SDS011;9633;50.980;13.850;2022-11-06T04:38:21;20.30;;;12.73;;
18999;SDS011;9633;50.980;13.850;2022-11-06T04:39:59;22.30;;;12.57;;
18999;SDS011;9633;50.980;13.850;2022-11-06T04:41:39;21.70;;;12.70;;
18999;SDS011;9633;50.980;13.850;2022-11-06T04:43:20;20.23;;;12.87;;
18999;SDS011;9633;50.980;13.850;2022-11-06T04:45:00;19.40;;;12.10;;
18999;SDS011;9633;50.980;13.850;2022-11-06T04:46:38;24.40;;;13.47;;
18999;SDS011;9633;50.980;13.850;2022-11-06T04:48:16;23.23;;;13.17;;
18999;SDS011;9633;50.980;13.850;2022-11-06T04:49:51;35.30;;;13.63;;
18999;SDS011;9633;50.980;13.850;2022-11-06T04:51:30;67.47;;;15.20;;
18999;SDS011;9633;50.980;13.850;2022-11-06T04:53:07;22.60;;;12.77;;
18999;SDS011;9633;50.980;13.850;2022-11-06T04:54:41;31.47;;;14.03;;
18999;SDS011;9633;50.980;13.850;2022-11-06T04:56:20;23.50;;;13.10;;
18999;SDS011;9633;50.980;13.850;2022-11-06T04:57:56;26.70;;;13.57;;
18999;SDS011;9633;50.980;13.850;2022-11-06T04:59:30;32.97;;;14.20;;
18999;SDS011;9633;50.980;13.850;2022-11-06T05:01:07;27.17;;;13.70;;
18999;SDS011;9633;50.980;13.850;2022-11-06T05:02:41;31.65;;;14.35;;
18999;SDS011;9633;50.980;13.850;2022-11-06T05:04:14;33.73;;;14.90;;
18999;SDS011;9633;50.980;13.850;2022-11-06T05:05:47;38.03;;;15.13;;
18999;SDS011;9633;50.980;13.850;2022-11-06T05:07:21;42.43;;;14.33;;
18999;SDS011;9633;50.980;13.850;2022-11-06T05:08:54;42.50;;;14.80;;
18999;SDS011;9633;50.980;13.850;2022-11-06T05:10:28;27.13;;;13.93;;
18999;SDS011;9633;50.980;13.850;2022-11-06T05:12:01;29.37;;;14.23;;
18999;SDS011;9633;50.980;13.850;2022-11-06T05:13:34;33.78;;;14.85;;
18999;SDS011;9633;50.980;13.850;2022-11-06T05:15:08;49.40;;;14.97;;
18999;SDS011;9633;50.980;13.850;2022-11-06T05:16:41;37.53;;;14.37;;
18999;SDS011;9633;50.980;13.850;2022-11-06T05:18:14;44.37;;;14.93;;
18999;SDS011;9633;50.980;13.850;2022-11-06T05:19:47;39.80;;;15.00;;
18999;SDS011;9633;50.980;13.850;2022-11-06T05:21:21;41.63;;;14.30;;
18999;SDS011;9633;50.980;13.850;2022-11-06T05:23:13;36.63;;;14.70;;
18999;SDS011;9633;50.980;13.850;2022-11-06T05:24:46;39.43;;;14.60;;
18999;SDS011;9633;50.980;13.850;2022-11-06T05:26:19;27.80;;;14.85;;
18999;SDS011;9633;50.980;13.850;2022-11-06T05:27:52;38.57;;;15.77;;
18999;SDS011;9633;50.980;13.850;2022-11-06T05:29:26;30.40;;;14.87;;
18999;SDS011;9633;50.980;13.850;2022-11-06T05:30:59;36.53;;;15.00;;
18999;SDS011;9633;50.980;13.850;2022-11-06T05:32:32;35.13;;;15.70;;
18999;SDS011;9633;50.980;13.850;2022-11-06T05:34:05;40.63;;;17.17;;
18999;SDS011;9633;50.980;13.850;2022-11-06T05:35:38;45.00;;;16.40;;
18999;SDS011;9633;50.980;13.850;2022-11-06T05:37:11;39.53;;;16.63;;
18999;SDS011;9633;50.980;13.850;2022-11-06T05:38:46;38.23;;;16.40;;
18999;SDS011;9633;50.980;13.850;2022-11-06T05:40:19;47.07;;;16.90;;
18999;SDS011;9633;50.980;13.850;2022-11-06T05:41:52;33.57;;;16.47;;
18999;SDS011;9633;50.980;13.850;2022-11-06T05:43:25;68.17;;;18.83;;
18999;SDS011;9633;50.980;13.850;2022-11-06T05:44:59;50.70;;;17.40;;
18999;SDS011;9633;50.980;13.850;2022-11-06T05:46:32;50.90;;;18.50;;
18999;SDS011;9633;50.980;13.850;2022-11-06T05:48:19;44.07;;;17.33;;
18999;SDS011;9633;50.980;13.850;2022-11-06T05:49:52;32.53;;;16.53;;
18999;SDS011;9633;50.980;13.850;2022-11-06T05:51:25;32.13;;;16.37;;
18999;SDS011;9633;50.980;13.850;2022-11-06T05:52:59;24.67;;;15.37;;
18999;SDS011;9633;50.980;13.850;2022-11-06T05:54:33;28.30;;;16.10;;
18999;SDS011;9633;50.980;13.850;2022-11-06T05:56:06;26.87;;;15.30;;
18999;SDS011;9633;50.980;13.850;2022-11-06T05:57:39;28.37;;;14.77;;
18999;SDS011;9633;50.980;13.850;2022-11-06T05:59:12;27.43;;;15.33;;
18999;SDS011;9633;50.980;13.850;2022-11-06T06:00:45;26.77;;;15.00;;
18999;SDS011;9633;50.980;13.850;2022-11-06T06:02:19;25.13;;;14.40;;
18999;SDS011;9633;50.980;13.850;2022-11-06T06:03:52;21.97;;;13.87;;
18999;SDS011;9633;50.980;13.850;2022-11-06T06:05:25;21.47;;;13.37;;
18999;SDS011;9633;50.980;13.850;2022-11-06T06:06:58;21.15;;;13.43;;
18999;SDS011;9633;50.980;13.850;2022-11-06T06:08:32;22.90;;;11.93;;
18999;SDS011;9633;50.980;13.850;2022-11-06T06:10:07;22.57;;;12.10;;
18999;SDS011;9633;50.980;13.850;2022-11-06T06:11:40;17.17;;;11.90;;
18999;SDS011;9633;50.980;13.850;2022-11-06T06:13:13;20.60;;;12.77;;
18999;SDS011;9633;50.980;13.850;2022-11-06T06:14:47;18.80;;;12.10;;
18999;SDS011;9633;50.980;13.850;2022-11-06T06:16:21;20.10;;;12.83;;
18999;SDS011;9633;50.980;13.850;2022-11-06T06:17:54;19.93;;;12.83;;
18999;SDS011;9633;50.980;13.850;2022-11-06T06:19:29;21.13;;;12.43;;
18999;SDS011;9633;50.980;13.850;2022-11-06T06:21:02;19.43;;;12.30;;
18999;SDS011;9633;50.980;13.850;2022-11-06T06:22:35;24.77;;;13.30;;
18999;SDS011;9633;50.980;13.850;2022-11-06T06:24:08;22.53;;;13.53;;
18999;SDS011;9633;50.980;13.850;2022-11-06T06:25:43;21.77;;;14.07;;
18999;SDS011;9633;50.980;13.850;2022-11-06T06:27:15;21.37;;;13.40;;
18999;SDS011;9633;50.980;13.850;2022-11-06T06:28:48;21.97;;;13.83;;
18999;SDS011;9633;50.980;13.850;2022-11-06T06:30:21;21.65;;;14.35;;
18999;SDS011;9633;50.980;13.850;2022-11-06T06:31:55;20.13;;;13.33;;
18999;SDS011;9633;50.980;13.850;2022-11-06T06:33:28;22.77;;;13.10;;
18999;SDS011;9633;50.980;13.850;2022-11-06T06:35:01;22.30;;;13.50;;
18999;SDS011;9633;50.980;13.850;2022-11-06T06:36:34;22.17;;;13.03;;
18999;SDS011;9633;50.980;13.850;2022-11-06T06:38:07;22.23;;;13.57;;
18999;SDS011;9633;50.980;13.850;2022-11-06T06:39:41;20.37;;;13.57;;
18999;SDS011;9633;50.980;13.850;2022-11-06T06:41:15;21.23;;;13.43;;
18999;SDS011;9633;50.980;13.850;2022-11-06T06:42:49;21.97;;;14.30;;
18999;SDS011;9633;50.980;13.850;2022-11-06T06:44:22;22.47;;;14.13;;
18999;SDS011;9633;50.980;13.850;2022-11-06T06:45:56;23.77;;;14.77;;
18999;SDS011;9633;50.980;13.850;2022-11-06T06:47:30;23.97;;;14.47;;
18999;SDS011;9633;50.980;13.850;2022-11-06T06:49:03;22.17;;;14.57;;
18999;SDS011;9633;50.980;13.850;2022-11-06T06:50:36;24.87;;;15.67;;
18999;SDS011;9633;50.980;13.850;2022-11-06T06:52:09;25.67;;;15.87;;
18999;SDS011;9633;50.980;13.850;2022-11-06T06:53:43;25.23;;;14.90;;
18999;SDS011;9633;50.980;13.850;2022-11-06T06:55:16;25.93;;;15.43;;
18999;SDS011;9633;50.980;13.850;2022-11-06T06:56:50;25.47;;;15.73;;
18999;SDS011;9633;50.980;13.850;2022-11-06T06:58:24;22.67;;;14.77;;
18999;SDS011;9633;50.980;13.850;2022-11-06T06:59:57;20.97;;;14.27;;
18999;SDS011;9633;50.980;13.850;2022-11-06T07:01:30;20.87;;;14.27;;
18999;SDS011;9633;50.980;13.850;2022-11-06T07:03:03;19.13;;;13.53;;
18999;SDS011;9633;50.980;13.850;2022-11-06T07:04:36;17.37;;;12.73;;
18999;SDS011;9633;50.980;13.850;2022-11-06T07:06:10;17.83;;;12.57;;
18999;SDS011;9633;50.980;13.850;2022-11-06T07:07:43;16.10;;;11.57;;
18999;SDS011;9633;50.980;13.850;2022-11-06T07:09:16;14.70;;;11.27;;
18999;SDS011;9633;50.980;13.850;2022-11-06T07:10:49;14.67;;;10.47;;
18999;SDS011;9633;50.980;13.850;2022-11-06T07:12:24;13.27;;;10.57;;
18999;SDS011;9633;50.980;13.850;2022-11-06T07:13:57;13.13;;;9.97;;
18999;SDS011;9633;50.980;13.850;2022-11-06T07:15:31;14.33;;;10.07;;
18999;SDS011;9633;50.980;13.850;2022-11-06T07:17:04;13.70;;;9.17;;
18999;SDS011;9633;50.980;13.850;2022-11-06T07:18:37;10.73;;;8.63;;
18999;SDS011;9633;50.980;13.850;2022-11-06T07:20:12;11.57;;;9.07;;
18999;SDS011;9633;50.980;13.850;2022-11-06T07:21:45;13.67;;;8.73;;
18999;SDS011;9633;50.980;13.850;2022-11-06T07:23:22;11.40;;;8.87;;
18999;SDS011;9633;50.980;13.850;2022-11-06T07:24:55;10.07;;;8.23;;
18999;SDS011;9633;50.980;13.850;2022-11-06T07:26:28;12.03;;;8.60;;
18999;SDS011;9633;50.980;13.850;2022-11-06T07:28:03;11.00;;;9.10;;
18999;SDS011;9633;50.980;13.850;2022-11-06T07:29:37;11.87;;;9.67;;
18999;SDS011;9633;50.980;13.850;2022-11-06T07:31:10;11.90;;;8.80;;
18999;SDS011;9633;50.980;13.850;2022-11-06T07:32:43;13.87;;;9.57;;
18999;SDS011;9633;50.980;13.850;2022-11-06T07:34:16;10.33;;;8.80;;
18999;SDS011;9633;50.980;13.850;2022-11-06T07:35:48;11.97;;;9.70;;
18999;SDS011;9633;50.980;13.850;2022-11-06T07:37:21;11.70;;;10.03;;
18999;SDS011;9633;50.980;13.850;2022-11-06T07:38:56;13.63;;;10.37;;
18999;SDS011;9633;50.980;13.850;2022-11-06T07:40:29;13.17;;;9.70;;
18999;SDS011;9633;50.980;13.850;2022-11-06T07:42:02;14.60;;;10.00;;
18999;SDS011;9633;50.980;13.850;2022-11-06T07:43:41;15.07;;;12.13;;
18999;SDS011;9633;50.980;13.850;2022-11-06T07:45:14;18.50;;;13.23;;
18999;SDS011;9633;50.980;13.850;2022-11-06T07:46:47;12.30;;;9.60;;
18999;SDS011;9633;50.980;13.850;2022-11-06T07:48:21;16.23;;;9.87;;
18999;SDS011;9633;50.980;13.850;2022-11-06T07:49:54;12.90;;;9.77;;
18999;SDS011;9633;50.980;13.850;2022-11-06T07:51:27;13.03;;;9.70;;
18999;SDS011;9633;50.980;13.850;2022-11-06T07:53:00;12.43;;;10.40;;
18999;SDS011;9633;50.980;13.850;2022-11-06T07:54:34;12.60;;;9.53;;
18999;SDS011;9633;50.980;13.850;2022-11-06T07:56:07;13.23;;;10.87;;
18999;SDS011;9633;50.980;13.850;2022-11-06T07:57:40;15.07;;;10.57;;
18999;SDS011;9633;50.980;13.850;2022-11-06T07:59:15;12.50;;;10.20;;
18999;SDS011;9633;50.980;13.850;2022-11-06T08:00:48;13.63;;;10.50;;
18999;SDS011;9633;50.980;13.850;2022-11-06T08:02:22;13.10;;;10.70;;
18999;SDS011;9633;50.980;13.850;2022-11-06T08:03:55;14.53;;;10.97;;
18999;SDS011;9633;50.980;13.850;2022-11-06T08:05:28;14.93;;;10.87;;
18999;SDS011;9633;50.980;13.850;2022-11-06T08:07:01;16.07;;;11.57;;
18999;SDS011;9633;50.980;13.850;2022-11-06T08:08:35;14.50;;;11.03;;
18999;SDS011;9633;50.980;13.850;2022-11-06T08:10:08;14.20;;;11.50;;
18999;SDS011;9633;50.980;13.850;2022-11-06T08:11:41;14.17;;;10.93;;
18999;SDS011;9633;50.980;13.850;2022-11-06T08:13:15;13.23;;;10.17;;
18999;SDS011;9633;50.980;13.850;2022-11-06T08:14:50;15.23;;;11.13;;
18999;SDS011;9633;50.980;13.850;2022-11-06T08:16:23;12.97;;;9.90;;
18999;SDS011;9633;50.980;13.850;2022-11-06T08:17:57;12.57;;;9.93;;
18999;SDS011;9633;50.980;13.850;2022-11-06T08:19:30;12.77;;;9.73;;
18999;SDS011;9633;50.980;13.850;2022-11-06T08:21:03;13.77;;;11.00;;
18999;SDS011;9633;50.980;13.850;2022-11-06T08:22:37;13.10;;;9.70;;
18999;SDS011;9633;50.980;13.850;2022-11-06T08:24:10;13.73;;;9.90;;
18999;SDS011;9633;50.980;13.850;2022-11-06T08:25:52;15.53;;;10.17;;
18999;SDS011;9633;50.980;13.850;2022-11-06T08:27:26;12.87;;;9.67;;
18999;SDS011;9633;50.980;13.850;2022-11-06T08:28:59;12.83;;;9.73;;
18999;SDS011;9633;50.980;13.850;2022-11-06T08:30:34;13.07;;;9.97;;
18999;SDS011;9633;50.980;13.850;2022-11-06T08:32:07;13.23;;;9.90;;
18999;SDS011;9633;50.980;13.850;2022-11-06T08:33:40;12.63;;;9.80;;
18999;SDS011;9633;50.980;13.850;2022-11-06T08:35:14;12.80;;;10.10;;
18999;SDS011;9633;50.980;13.850;2022-11-06T08:36:47;12.07;;;9.83;;
18999;SDS011;9633;50.980;13.850;2022-11-06T08:38:22;12.50;;;9.23;;
18999;SDS011;9633;50.980;13.850;2022-11-06T08:39:55;13.37;;;9.97;;
18999;SDS011;9633;50.980;13.850;2022-11-06T08:41:28;13.37;;;10.03;;
18999;SDS011;9633;50.980;13.850;2022-11-06T08:43:02;11.50;;;9.93;;
18999;SDS011;9633;50.980;13.850;2022-11-06T08:44:37;13.13;;;10.37;;
18999;SDS011;9633;50.980;13.850;2022-11-06T08:46:14;13.53;;;10.50;;
18999;SDS011;9633;50.980;13.850;2022-11-06T08:47:47;13.23;;;10.00;;
18999;SDS011;9633;50.980;13.850;2022-11-06T08:49:20;13.13;;;9.87;;
18999;SDS011;9633;50.980;13.850;2022-11-06T08:50:53;13.50;;;10.33;;
18999;SDS011;9633;50.980;13.850;2022-11-06T08:52:26;12.93;;;10.27;;
18999;SDS011;9633;50.980;13.850;2022-11-06T08:54:04;11.30;;;10.10;;
18999;SDS011;9633;50.980;13.850;2022-11-06T08:55:38;13.40;;;9.90;;
18999;SDS011;9633;50.980;13.850;2022-11-06T08:57:12;15.07;;;10.87;;
18999;SDS011;9633;50.980;13.850;2022-11-06T08:58:45;13.30;;;10.10;;
18999;SDS011;9633;50.980;13.850;2022-11-06T09:00:25;11.80;;;9.90;;
18999;SDS011;9633;50.980;13.850;2022-11-06T09:02:00;12.63;;;9.90;;
18999;SDS011;9633;50.980;13.850;2022-11-06T09:03:34;12.60;;;9.87;;
18999;SDS011;9633;50.980;13.850;2022-11-06T09:05:07;11.93;;;9.83;;
18999;SDS011;9633;50.980;13.850;2022-11-06T09:06:41;12.10;;;10.13;;
18999;SDS011;9633;50.980;13.850;2022-11-06T09:08:14;12.20;;;9.70;;
18999;SDS011;9633;50.980;13.850;2022-11-06T09:09:47;13.60;;;10.03;;
18999;SDS011;9633;50.980;13.850;2022-11-06T09:11:20;13.57;;;10.00;;
18999;SDS011;9633;50.980;13.850;2022-11-06T09:12:53;11.43;;;8.97;;
18999;SDS011;9633;50.980;13.850;2022-11-06T09:14:29;12.77;;;9.47;;
18999;SDS011;9633;50.980;13.850;2022-11-06T09:16:02;12.10;;;9.47;;
18999;SDS011;9633;50.980;13.850;2022-11-06T09:17:43;11.73;;;9.47;;
18999;SDS011;9633;50.980;13.850;2022-11-06T09:19:16;10.73;;;9.00;;
18999;SDS011;9633;50.980;13.850;2022-11-06T09:20:52;11.57;;;9.37;;
18999;SDS011;9633;50.980;13.850;2022-11-06T09:22:25;11.53;;;9.23;;
18999;SDS011;9633;50.980;13.850;2022-11-06T09:23:58;10.00;;;8.77;;